Time;durP1;ratioP1;P1;durP2;ratioP2;P2;SDS_P1;SDS_P2;PMS_P1;PMS_P2;Temp;Humidity;BMP_temperature;BMP_pressure;BME280_temperature;BME280_humidity;BME280_pressure;Samples;Min_cycle;Max_cycle;Signal;HPM_P1;HPM_P2
2023/09/02 00:01:02;;;;;;;7.57;6.43;;;;;;;16.82;100.00;100662.94;5036135;28;20044;-81
2023/09/02 00:03:29;;;;;;;9.57;6.53;;;;;;;16.82;100.00;100653.81;5031611;28;20120;-81
2023/09/02 00:05:55;;;;;;;8.82;6.20;;;;;;;16.82;100.00;100651.91;5036801;28;20040;-80
2023/09/02 00:08:21;;;;;;;8.88;7.35;;;;;;;16.81;100.00;100654.91;5041162;28;20056;-81
2023/09/02 00:10:47;;;;;;;8.75;6.82;;;;;;;16.82;100.00;100651.91;5040515;28;20053;-81
2023/09/02 00:13:13;;;;;;;8.07;6.50;;;;;;;16.83;100.00;100644.47;5047403;28;20080;-81
2023/09/02 00:15:41;;;;;;;9.27;6.75;;;;;;;16.80;100.00;100645.81;5034458;28;20048;-81
2023/09/02 00:18:07;;;;;;;10.02;6.80;;;;;;;16.82;100.00;100653.81;5040434;28;20038;-81
2023/09/02 00:20:33;;;;;;;9.07;6.97;;;;;;;16.77;100.00;100657.38;5037233;28;20091;-81
2023/09/02 00:22:59;;;;;;;8.05;6.63;;;;;;;16.83;100.00;100655.47;5034958;28;20076;-81
2023/09/02 00:25:26;;;;;;;8.88;6.82;;;;;;;16.82;100.00;100662.94;5034554;28;20040;-81
2023/09/02 00:27:52;;;;;;;10.43;6.88;;;;;;;16.78;100.00;100664.53;5041540;28;20476;-81
2023/09/02 00:30:19;;;;;;;9.52;7.15;;;;;;;16.75;100.00;100656.78;5048143;28;20042;-82
2023/09/02 00:32:45;;;;;;;8.50;6.40;;;;;;;16.71;100.00;100661.16;5034303;28;20076;-81
2023/09/02 00:35:11;;;;;;;8.88;6.57;;;;;;;16.68;100.00;100661.66;5046863;28;20428;-81
2023/09/02 00:37:37;;;;;;;8.00;6.40;;;;;;;16.63;100.00;100670.69;5048278;28;20041;-81
2023/09/02 00:40:05;;;;;;;11.07;7.47;;;;;;;16.60;100.00;100675.88;5034464;28;20083;-82
2023/09/02 00:42:33;;;;;;;8.55;7.13;;;;;;;16.57;100.00;100677.22;5034521;28;20045;-81
2023/09/02 00:45:00;;;;;;;8.30;6.03;;;;;;;16.54;100.00;100667.56;5017520;28;20132;-82
2023/09/02 00:47:26;;;;;;;7.47;6.20;;;;;;;16.54;100.00;100667.56;5045194;28;20052;-81
2023/09/02 00:49:52;;;;;;;10.85;7.38;;;;;;;16.56;100.00;100674.72;5034951;28;20025;-81
2023/09/02 00:52:19;;;;;;;10.93;7.20;;;;;;;16.58;100.00;100667.03;5035062;28;20040;-81
2023/09/02 00:54:45;;;;;;;9.82;6.88;;;;;;;16.60;100.00;100660.19;5034729;28;20097;-81
2023/09/02 00:57:12;;;;;;;10.52;7.05;;;;;;;16.62;100.00;100660.78;5034746;28;20103;-81
2023/09/02 00:59:39;;;;;;;9.30;6.97;;;;;;;16.63;100.00;100658.84;5035648;28;20036;-81
2023/09/02 01:02:07;;;;;;;9.75;6.50;;;;;;;16.63;100.00;100658.84;5044178;28;20083;-81
2023/09/02 01:04:35;;;;;;;9.15;7.43;;;;;;;16.66;100.00;100663.81;5058007;28;20030;-81
2023/09/02 01:07:02;;;;;;;10.20;6.97;;;;;;;16.65;100.00;100667.69;5058025;28;20016;-81
2023/09/02 01:09:30;;;;;;;8.95;6.50;;;;;;;16.62;100.00;100670.94;5057667;28;20059;-80
2023/09/02 01:11:57;;;;;;;8.98;6.60;;;;;;;16.61;100.00;100666.53;5049829;28;20049;-81
2023/09/02 01:14:23;;;;;;;8.80;6.97;;;;;;;16.59;100.00;100666.81;5034549;28;20045;-81
2023/09/02 01:16:49;;;;;;;8.55;6.65;;;;;;;16.57;100.00;100670.88;5042531;28;20029;-81
2023/09/02 01:19:17;;;;;;;9.88;7.72;;;;;;;16.51;100.00;100673.59;5032832;28;20034;-81
2023/09/02 01:22:19;;;;;;;8.38;6.90;;;;;;;16.49;100.00;100670.25;5034798;28;20092;-81
2023/09/02 01:25:04;;;;;;;11.95;8.50;;;;;;;16.50;100.00;100671.06;5045134;28;20382;-80
2023/09/02 01:28:11;;;;;;;10.77;8.40;;;;;;;16.47;100.00;100666.09;5034013;28;20501;-81
2023/09/02 01:30:42;;;;;;;8.82;7.03;;;;;;;16.45;100.00;100665.50;5003701;28;20034;-80
2023/09/02 01:33:10;;;;;;;12.55;8.45;;;;;;;16.48;100.00;100673.25;5031132;28;20129;-80
2023/09/02 01:35:37;;;;;;;9.95;7.38;;;;;;;16.45;100.00;100662.75;5036569;28;20041;-81
2023/09/02 01:38:06;;;;;;;11.48;7.45;;;;;;;16.48;100.00;100673.25;5038272;28;20041;-81
2023/09/02 01:40:34;;;;;;;10.40;7.80;;;;;;;16.49;100.00;100672.16;5034799;28;20106;-81
2023/09/02 01:43:00;;;;;;;12.80;9.60;;;;;;;16.51;100.00;100668.06;5039681;28;20512;-81
2023/09/02 01:45:30;;;;;;;11.55;7.57;;;;;;;16.51;100.00;100668.06;5042635;28;20061;-81
2023/09/02 01:47:58;;;;;;;10.73;7.93;;;;;;;16.52;100.00;100672.50;5040132;28;20044;-81
2023/09/02 01:50:27;;;;;;;10.23;8.45;;;;;;;16.52;100.00;100675.25;5035455;28;20041;-80
2023/09/02 01:52:56;;;;;;;10.95;8.02;;;;;;;16.53;100.00;100673.31;5044019;28;20041;-81
2023/09/02 01:55:23;;;;;;;9.23;7.57;;;;;;;16.56;100.00;100680.25;5037979;28;20471;-80
2023/09/02 01:57:50;;;;;;;;;;;;;;;16.58;100.00;100678.06;5037706;28;20431;-81
2023/09/02 02:00:17;;;;;;;11.05;7.60;;;;;;;16.59;100.00;100674.22;5053452;28;19921;-80
2023/09/02 02:02:47;;;;;;;8.27;7.15;;;;;;;16.59;100.00;100682.47;5042195;28;20128;-81
2023/09/02 02:05:16;;;;;;;10.40;7.35;;;;;;;16.59;100.00;100677.81;5033169;28;20042;-81
2023/09/02 02:07:47;;;;;;;11.82;8.48;;;;;;;16.47;100.00;100666.09;5038162;28;20036;-81
2023/09/02 02:10:18;;;;;;;9.65;7.93;;;;;;;16.62;100.00;100690.22;5037721;28;20057;-81
2023/09/02 02:12:44;;;;;;;10.38;8.55;;;;;;;16.61;100.00;100694.06;5032503;28;20037;-80
2023/09/02 02:15:11;;;;;;;11.13;8.05;;;;;;;16.61;100.00;100696.81;5038921;28;20029;-79
2023/09/02 02:17:41;;;;;;;10.18;7.30;;;;;;;16.58;100.00;100697.34;5035402;28;20041;-80
2023/09/02 02:20:11;;;;;;;10.77;6.88;;;;;;;16.60;100.00;100697.91;5045850;28;20397;-80
2023/09/02 02:22:38;;;;;;;9.60;8.35;;;;;;;16.59;100.00;100701.75;5048161;28;20447;-80
2023/09/02 02:25:05;;;;;;;9.02;7.20;;;;;;;16.56;100.00;100707.78;5040522;28;20123;-80
2023/09/02 02:27:31;;;;;;;10.38;7.70;;;;;;;16.56;100.00;100702.28;5022192;28;20170;-80
2023/09/02 02:29:59;;;;;;;11.10;8.90;;;;;;;16.57;100.00;100698.44;5037400;28;20033;-80
2023/09/02 02:32:25;;;;;;;12.27;8.38;;;;;;;16.53;100.00;100704.44;5041812;28;20033;-80
2023/09/02 02:34:53;;;;;;;11.55;8.73;;;;;;;16.51;100.00;100706.63;5020497;28;20036;-80
2023/09/02 02:37:20;;;;;;;9.80;7.80;;;;;;;16.50;100.00;100696.72;5033139;28;20091;-80
2023/09/02 02:39:46;;;;;;;13.43;9.32;;;;;;;16.51;100.00;100701.13;5031136;28;20041;-80
2023/09/02 02:42:14;;;;;;;13.23;10.48;;;;;;;16.50;100.00;100704.13;5032789;28;20404;-81
2023/09/02 02:44:41;;;;;;;12.50;9.43;;;;;;;16.49;100.00;100708.81;5035878;28;20044;-81
2023/09/02 02:47:07;;;;;;;12.07;10.00;;;;;;;16.50;100.00;100704.97;5032527;28;20033;-81
2023/09/02 02:49:33;;;;;;;13.85;10.10;;;;;;;16.51;100.00;100708.53;5038664;28;20026;-81
2023/09/02 02:52:01;;;;;;;13.27;10.40;;;;;;;16.48;100.00;100706.28;5038843;28;20072;-81
2023/09/02 02:54:28;;;;;;;11.60;10.27;;;;;;;16.49;100.00;100699.69;5035645;28;20148;-80
2023/09/02 02:56:55;;;;;;;14.68;10.82;;;;;;;16.49;100.00;100703.31;5032133;28;20078;-81
2023/09/02 02:59:21;;;;;;;12.85;10.50;;;;;;;16.50;100.00;100698.59;5036896;28;20051;-81
2023/09/02 03:01:49;;;;;;;12.75;10.43;;;;;;;16.48;100.00;100701.63;5033895;28;20155;-81
2023/09/02 03:04:15;;;;;;;15.60;10.00;;;;;;;16.49;100.00;100696.94;5039818;28;20033;-81
2023/09/02 03:06:41;;;;;;;13.13;10.15;;;;;;;16.50;100.00;100702.22;5037441;28;20054;-81
2023/09/02 03:09:08;;;;;;;13.50;9.43;;;;;;;16.49;100.00;100702.44;5045961;28;20041;-81
2023/09/02 03:11:34;;;;;;;12.75;10.05;;;;;;;16.48;100.00;100711.81;5027890;28;20060;-80
2023/09/02 03:14:02;;;;;;;;;;;;;;;16.47;100.00;100702.72;5031220;28;20124;-81
2023/09/02 03:16:29;;;;;;;12.68;10.02;;;;;;;16.44;100.00;100699.63;5023365;28;19935;-81
2023/09/02 03:18:55;;;;;;;16.30;9.85;;;;;;;16.43;100.00;100697.97;5051817;28;20639;-81
2023/09/02 03:21:22;;;;;;;13.40;10.57;;;;;;;16.40;100.00;100702.06;5033632;28;20116;-81
2023/09/02 03:23:48;;;;;;;12.15;10.02;;;;;;;16.40;100.00;100699.31;5037091;28;20111;-81
2023/09/02 03:26:15;;;;;;;14.60;10.57;;;;;;;16.41;100.00;100697.41;5037614;28;20033;-80
2023/09/02 03:28:44;;;;;;;13.02;10.52;;;;;;;16.36;100.00;100704.50;5031787;28;20037;-80
2023/09/02 03:31:11;;;;;;;13.60;10.27;;;;;;;16.37;100.00;100695.16;5037546;28;20401;-80
2023/09/02 03:33:40;;;;;;;11.50;9.70;;;;;;;16.39;100.00;100698.50;5032017;28;20500;-80
2023/09/02 03:36:13;;;;;;;11.32;9.13;;;;;;;16.42;100.00;100712.81;5043939;28;20034;-80
2023/09/02 03:38:40;;;;;;;10.55;9.38;;;;;;;16.41;100.00;100711.97;5040009;28;20033;-80
2023/09/02 03:41:11;;;;;;;11.43;9.53;;;;;;;16.43;100.00;100718.06;5035041;28;20053;-80
2023/09/02 03:43:37;;;;;;;13.18;9.20;;;;;;;16.43;100.00;100714.50;5031273;28;20396;-80
2023/09/02 03:46:03;;;;;;;12.75;9.35;;;;;;;16.27;100.00;100694.19;5035013;28;20149;-81
2023/09/02 03:48:29;;;;;;;12.43;9.93;;;;;;;16.40;100.00;100724.09;5021061;28;20030;-80
2023/09/02 03:51:03;;;;;;;12.27;9.60;;;;;;;16.37;100.00;100719.09;5037993;28;20048;-80
2023/09/02 03:53:33;;;;;;;12.27;9.90;;;;;;;16.32;100.00;100708.84;5019156;28;20485;-80
2023/09/02 03:56:00;;;;;;;12.68;10.32;;;;;;;16.31;100.00;100720.09;5018341;28;20033;-81
2023/09/02 03:58:29;;;;;;;14.77;11.18;;;;;;;16.29;100.00;100716.78;5038162;28;20044;-80
2023/09/02 04:00:56;;;;;;;14.00;10.73;;;;;;;16.29;100.00;100714.03;5047416;28;20103;-83
2023/09/02 04:03:23;;;;;;;14.40;9.73;;;;;;;16.28;100.00;100713.19;5049507;28;20697;-81
2023/09/02 04:05:50;;;;;;;15.13;10.07;;;;;;;16.22;100.00;100720.56;5048935;28;20056;-82
2023/09/02 04:08:19;;;;;;;12.23;9.80;;;;;;;16.23;100.00;100713.13;5045224;28;20346;-82
2023/09/02 04:10:51;;;;;;;12.75;9.60;;;;;;;16.17;100.00;100720.44;5044318;28;20025;-82
2023/09/02 04:13:21;;;;;;;11.75;9.38;;;;;;;16.16;100.00;100720.72;5048500;28;20036;-81
2023/09/02 04:15:47;;;;;;;12.68;9.88;;;;;;;16.22;100.00;100720.56;5038822;28;20032;-80
2023/09/02 04:18:13;;;;;;;12.25;9.77;;;;;;;16.22;100.00;100723.31;5034976;28;20134;-83
2023/09/02 04:20:40;;;;;;;12.38;9.15;;;;;;;16.26;100.00;100723.63;5036054;28;20079;-81
2023/09/02 04:23:08;;;;;;;11.60;9.23;;;;;;;16.27;100.00;100732.72;5039035;28;20037;-81
2023/09/02 04:25:41;;;;;;;12.20;8.80;;;;;;;16.28;100.00;100737.13;5049839;28;20045;-81
2023/09/02 04:28:08;;;;;;;12.43;8.95;;;;;;;16.26;100.00;100742.88;5049090;28;20481;-80
2023/09/02 04:30:35;;;;;;;11.35;9.20;;;;;;;16.28;100.00;100748.97;5042005;28;20083;-81
2023/09/02 04:33:02;;;;;;;9.60;8.23;;;;;;;16.30;100.00;100751.47;5048831;28;20041;-81
2023/09/02 04:35:28;;;;;;;11.55;8.80;;;;;;;16.30;100.00;100762.50;5047743;28;20038;-81
2023/09/02 04:37:54;;;;;;;9.63;8.48;;;;;;;16.29;100.00;100774.59;5046816;28;20477;-81
2023/09/02 04:40:20;;;;;;;10.88;8.20;;;;;;;16.23;100.00;100765.41;5051924;28;20457;-80
2023/09/02 04:42:47;;;;;;;9.90;8.20;;;;;;;16.24;100.00;100767.06;5047091;28;20037;-82
2023/09/02 04:45:13;;;;;;;11.20;9.32;;;;;;;16.13;100.00;100768.84;5051289;28;20037;-80
2023/09/02 04:47:39;;;;;;;10.00;7.97;;;;;;;16.23;100.00;100770.91;5045764;28;20111;-80
2023/09/02 04:50:06;;;;;;;12.38;8.82;;;;;;;16.24;100.00;100786.34;5048809;28;20029;-83
2023/09/02 04:52:32;;;;;;;9.98;8.40;;;;;;;16.23;100.00;100799.28;5046496;28;20159;-81
2023/09/02 04:54:58;;;;;;;11.45;8.25;;;;;;;16.27;100.00;100809.78;5048486;28;20032;-88
2023/09/02 04:57:24;;;;;;;12.68;8.82;;;;;;;16.29;100.00;100807.63;5050989;28;20036;-83
2023/09/02 04:59:50;;;;;;;9.68;8.05;;;;;;;16.30;100.00;100818.34;5051079;28;20036;-83
2023/09/02 05:02:17;;;;;;;9.48;7.78;;;;;;;16.37;100.00;100820.94;5053489;28;20044;-84
2023/09/02 05:04:46;;;;;;;11.02;8.40;;;;;;;16.37;100.00;100812.69;5052839;28;20063;-84
2023/09/02 05:07:12;;;;;;;10.55;8.43;;;;;;;16.43;100.00;100821.88;5050669;28;20025;-83
2023/09/02 05:09:39;;;;;;;10.48;8.40;;;;;;;16.43;100.00;100833.69;5048450;28;20084;-81
2023/09/02 05:12:05;;;;;;;12.55;9.13;;;;;;;16.50;100.00;100837.13;5051662;28;20500;-81
2023/09/02 05:14:32;;;;;;;12.98;8.30;;;;;;;16.51;100.00;100844.31;5056094;28;20167;-83
2023/09/02 05:16:58;;;;;;;11.65;8.45;;;;;;;16.55;100.00;100852.88;5048476;28;20095;-83
2023/09/02 05:19:25;;;;;;;8.90;7.03;;;;;;;16.57;100.00;100858.16;5052727;28;20507;-85
2023/09/02 05:21:52;;;;;;;9.13;7.15;;;;;;;16.50;100.00;100856.41;5047726;28;20473;-86
2023/09/02 05:24:18;;;;;;;11.20;7.90;;;;;;;16.49;100.00;100864.91;5047451;28;20039;-85
2023/09/02 05:26:44;;;;;;;10.13;7.63;;;;;;;16.48;100.00;100877.88;5056034;28;20067;-86
2023/09/02 05:29:10;;;;;;;9.82;8.00;;;;;;;16.46;100.00;100874.53;5050954;28;20126;-81
2023/09/02 05:31:36;;;;;;;10.45;8.38;;;;;;;16.46;100.00;100877.28;5051106;28;20042;-81
2023/09/02 05:34:02;;;;;;;9.07;7.88;;;;;;;16.45;100.00;100885.78;5050634;28;20036;-83
2023/09/02 05:36:28;;;;;;;10.05;8.40;;;;;;;16.45;100.00;100880.28;5046112;28;20099;-84
2023/09/02 05:38:54;;;;;;;9.63;7.85;;;;;;;16.48;100.00;100883.38;5051249;28;20032;-84
2023/09/02 05:41:21;;;;;;;10.15;8.02;;;;;;;16.64;100.00;100876.19;5055118;28;20527;-85
2023/09/02 05:43:47;;;;;;;10.88;8.55;;;;;;;16.77;100.00;100887.91;5046581;28;20159;-86
2023/09/02 05:46:13;;;;;;;10.30;8.07;;;;;;;16.94;100.00;100902.50;5056860;28;20102;-91
2023/09/02 05:48:39;;;;;;;10.82;8.02;;;;;;;17.06;100.00;100907.94;5065634;28;20105;-90
2023/09/02 05:51:06;;;;;;;10.95;7.80;;;;;;;17.08;100.00;100921.44;5076986;28;20052;-85
2023/09/02 05:53:32;;;;;;;10.57;7.88;;;;;;;17.06;100.00;100926.38;5072822;28;20024;-86
2023/09/02 05:55:58;;;;;;;9.05;7.78;;;;;;;17.07;100.00;100934.41;5057548;28;20036;-86
2023/09/02 05:58:25;;;;;;;9.27;7.47;;;;;;;17.18;100.00;100934.56;5063358;28;20038;-85
2023/09/02 06:00:51;;;;;;;10.60;7.68;;;;;;;17.30;100.00;100934.44;5049295;28;20061;-85
2023/09/02 06:03:17;;;;;;;9.07;7.32;;;;;;;17.40;100.00;100948.38;5045556;28;20453;-86
2023/09/02 06:05:43;;;;;;;9.57;7.53;;;;;;;17.53;100.00;100955.44;5048854;28;20078;-86
2023/09/02 06:08:09;;;;;;;8.02;6.72;;;;;;;17.60;100.00;100967.09;5032944;28;20076;-85
2023/09/02 06:10:36;;;;;;;8.88;6.93;;;;;;;17.65;100.00;100980.97;5038129;28;20105;-86
2023/09/02 06:13:02;;;;;;;9.25;6.53;;;;;;;17.72;100.00;100989.06;5034004;28;20049;-86
2023/09/02 06:15:28;;;;;;;9.13;6.80;;;;;;;17.80;100.00;100993.28;5038035;28;20397;-86
2023/09/02 06:17:55;;;;;;;9.05;6.22;;;;;;;17.87;100.00;101004.09;5034972;28;20087;-87
2023/09/02 06:20:23;;;;;;;7.85;6.40;;;;;;;17.99;100.00;101007.59;5051469;28;20381;-86
2023/09/02 06:22:49;;;;;;;7.97;6.53;;;;;;;18.08;100.00;101008.81;5038326;28;20074;-87
2023/09/02 06:25:15;;;;;;;9.07;6.60;;;;;;;18.26;100.00;101021.44;5041057;28;20095;-88
2023/09/02 06:27:41;;;;;;;8.13;6.57;;;;;;;18.25;100.00;101028.06;5034473;28;20374;-86
2023/09/02 06:30:08;;;;;;;8.77;6.85;;;;;;;18.04;100.00;101023.41;5040239;28;20031;-88
2023/09/02 06:32:34;;;;;;;8.05;6.60;;;;;;;18.12;100.00;101011.91;5042092;28;20408;-87
2023/09/02 06:35:00;;;;;;;8.60;7.35;;;;;;;18.32;100.00;101005.75;5032616;28;20519;-85
2023/09/02 06:37:29;;;;;;;11.57;7.40;;;;;;;18.52;100.00;101005.13;5034690;28;20491;-85
2023/09/02 06:39:55;;;;;;;11.40;6.55;;;;;;;18.71;100.00;101026.84;5039027;28;20033;-87
2023/09/02 06:42:22;;;;;;;7.95;6.03;;;;;;;18.81;100.00;101049.03;5036933;28;20033;-87
2023/09/02 06:44:53;;;;;;;9.57;6.57;;;;;;;18.99;100.00;101069.13;5039765;28;20462;-87
2023/09/02 06:47:19;;;;;;;8.63;6.70;;;;;;;19.22;100.00;101079.00;5035446;28;20095;-86
2023/09/02 06:49:45;;;;;;;7.32;5.88;;;;;;;19.35;100.00;101082.41;5049370;28;20073;-87
2023/09/02 06:52:11;;;;;;;6.82;5.57;;;;;;;19.25;100.00;101097.00;5036933;28;20065;-84
2023/09/02 06:54:37;;;;;;;8.75;6.80;;;;;;;19.48;100.00;101098.53;5054309;28;20035;-83
2023/09/02 06:57:04;;;;;;;9.57;7.93;;;;;;;19.67;100.00;101103.66;5049063;28;20053;-84
2023/09/02 06:59:30;;;;;;;9.30;7.35;;;;;;;19.79;100.00;101106.22;5051893;28;20037;-85
2023/09/02 07:01:56;;;;;;;9.82;7.63;;;;;;;20.05;100.00;101109.16;5045589;28;20048;-84
2023/09/02 07:04:22;;;;;;;9.45;7.10;;;;;;;20.19;100.00;101113.09;5038255;28;20041;-84
2023/09/02 07:06:48;;;;;;;6.43;5.47;;;;;;;20.37;100.00;101110.94;5036829;28;20041;-83
2023/09/02 07:09:14;;;;;;;9.23;5.70;;;;;;;20.50;100.00;101106.81;5028727;28;20045;-86
2023/09/02 07:11:40;;;;;;;9.27;7.55;;;;;;;20.53;100.00;101109.88;5047803;28;20037;-87
2023/09/02 07:14:06;;;;;;;9.32;7.38;;;;;;;20.55;100.00;101118.75;5035086;28;20048;-83
2023/09/02 07:16:33;;;;;;;8.63;7.15;;;;;;;20.68;100.00;101133.19;5039452;28;20074;-85
2023/09/02 07:19:02;;;;;;;7.93;6.70;;;;;;;20.78;100.00;101130.44;5034177;28;20124;-84
2023/09/02 07:21:29;;;;;;;7.80;6.40;;;;;;;20.71;100.00;101138.22;5034166;28;20046;-84
2023/09/02 07:23:55;;;;;;;9.55;7.65;;;;;;;20.58;100.00;101131.25;5055665;28;20042;-85
2023/09/02 07:26:21;;;;;;;9.30;7.68;;;;;;;20.50;100.00;101126.22;5049221;28;20400;-80
2023/09/02 07:28:47;;;;;;;9.07;7.43;;;;;;;20.60;100.00;101130.94;5046271;28;20029;-78
2023/09/02 07:31:14;;;;;;;8.82;7.57;;;;;;;20.67;100.00;101137.06;5042957;28;20041;-77
2023/09/02 07:33:41;;;;;;;8.88;7.65;;;;;;;20.86;100.00;101142.13;5043822;28;20036;-82
2023/09/02 07:36:08;;;;;;;8.77;7.45;;;;;;;20.84;100.00;101153.50;5038967;28;20042;-83
2023/09/02 07:38:35;;;;;;;;;;;;;;;20.88;100.00;101151.84;5038539;28;20083;-82
2023/09/02 07:41:01;;;;;;;8.30;7.30;;;;;;;20.81;100.00;101156.81;5032498;28;19920;-84
2023/09/02 07:43:27;;;;;;;9.90;7.80;;;;;;;20.92;100.00;101160.44;5032550;28;20087;-78
2023/09/02 07:45:54;;;;;;;11.10;8.45;;;;;;;20.92;100.00;101169.59;5032413;28;20065;-78
2023/09/02 07:48:20;;;;;;;9.88;7.82;;;;;;;21.05;100.00;101170.16;5032488;28;20677;-83
2023/09/02 07:50:46;;;;;;;12.65;7.70;;;;;;;21.18;100.00;101169.66;5033119;28;20076;-79
2023/09/02 07:53:13;;;;;;;11.50;8.35;;;;;;;21.31;100.00;101171.03;5032685;28;20107;-78
2023/09/02 07:55:40;;;;;;;9.70;8.38;;;;;;;21.39;100.00;101180.75;5032646;28;20110;-80
2023/09/02 07:58:07;;;;;;;10.40;7.82;;;;;;;21.65;100.00;101175.22;5037522;28;20400;-80
2023/09/02 08:00:36;;;;;;;11.40;8.63;;;;;;;21.70;100.00;101173.25;5032381;28;20120;-78
2023/09/02 08:03:07;;;;;;;11.63;8.48;;;;;;;22.00;100.00;101179.06;5035150;28;20512;-80
2023/09/02 08:05:40;;;;;;;10.00;7.80;;;;;;;22.09;100.00;101182.91;5040336;28;20037;-81
2023/09/02 08:08:06;;;;;;;9.70;8.15;;;;;;;22.23;100.00;101188.69;5032023;28;20160;-82
2023/09/02 08:10:33;;;;;;;7.97;6.82;;;;;;;22.31;100.00;101190.06;5049888;28;20031;-80
2023/09/02 08:13:00;;;;;;;8.20;6.73;;;;;;;22.25;100.00;101191.19;5041842;28;20508;-80
2023/09/02 08:15:26;;;;;;;8.57;6.40;;;;;;;22.22;100.00;101194.56;5042482;28;20385;-81
2023/09/02 08:17:52;;;;;;;9.50;7.25;;;;;;;21.99;100.00;101194.06;5046710;28;20036;-81
2023/09/02 08:20:18;;;;;;;10.40;8.15;;;;;;;21.46;100.00;101197.09;5043854;28;20037;-82
2023/09/02 08:22:45;;;;;;;11.13;8.02;;;;;;;21.68;100.00;101194.91;5038657;28;20057;-82
2023/09/02 08:25:11;;;;;;;9.25;7.45;;;;;;;21.75;100.00;101202.97;5032717;28;20037;-80
2023/09/02 08:27:37;;;;;;;9.38;7.30;;;;;;;21.62;100.00;101201.56;5032007;28;20037;-80
2023/09/02 08:30:04;;;;;;;8.85;6.78;;;;;;;21.59;100.00;101215.16;5044392;28;20040;-79
2023/09/02 08:32:31;;;;;;;8.32;7.18;;;;;;;21.58;100.00;101219.88;5035794;28;20068;-79
2023/09/02 08:34:57;;;;;;;10.80;8.02;;;;;;;21.76;100.00;101223.25;5039550;28;20046;-79
2023/09/02 08:37:24;;;;;;;11.52;9.57;;;;;;;21.83;100.00;101229.34;5050052;28;20033;-80
2023/09/02 08:39:51;;;;;;;12.15;8.90;;;;;;;22.06;100.00;101227.91;5039224;28;20057;-79
2023/09/02 08:42:18;;;;;;;11.80;9.32;;;;;;;22.16;100.00;101229.84;5046350;28;20036;-78
2023/09/02 08:44:46;;;;;;;10.95;9.13;;;;;;;22.03;100.00;101233.22;5045419;28;20055;-80
2023/09/02 08:47:15;;;;;;;11.88;9.77;;;;;;;22.29;100.00;101228.44;5050601;28;20551;-80
2023/09/02 08:49:42;;;;;;;12.07;9.55;;;;;;;23.04;100.00;101242.59;5040181;28;20362;-82
2023/09/02 08:52:08;;;;;;;12.18;9.25;;;;;;;22.99;100.00;101243.44;5050059;28;20045;-82
2023/09/02 08:54:37;;;;;;;10.95;8.57;;;;;;;23.05;100.00;101249.81;5028704;28;20049;-81
2023/09/02 08:57:04;;;;;;;8.32;6.28;;;;;;;23.49;100.00;101250.97;5042224;28;20037;-78
2023/09/02 08:59:30;;;;;;;7.28;4.72;;;;;;;23.75;100.00;101248.81;5037590;28;20069;-87
2023/09/02 09:01:57;;;;;;;6.65;4.70;;;;;;;23.79;100.00;101255.47;5032481;28;20029;-83
2023/09/02 09:04:27;;;;;;;7.10;4.50;;;;;;;23.81;100.00;101250.41;5036522;28;20489;-83
2023/09/02 09:06:53;;;;;;;6.63;4.78;;;;;;;23.70;100.00;101252.47;5036360;28;20791;-84
2023/09/02 09:09:19;;;;;;;7.43;5.10;;;;;;;23.83;100.00;101256.53;5044841;28;20071;-83
2023/09/02 09:11:46;;;;;;;6.28;4.50;;;;;;;23.92;100.00;101259.53;5036000;28;20168;-83
2023/09/02 09:14:23;;;;;;;6.40;4.43;;;;;;;24.30;100.00;101266.41;5042059;28;20498;-85
2023/09/02 09:16:54;;;;;;;7.78;5.20;;;;;;;24.47;100.00;101266.78;5035816;28;20037;-85
2023/09/02 09:19:25;;;;;;;5.85;4.15;;;;;;;24.64;100.00;101263.53;5041317;28;20055;-85
2023/09/02 09:21:51;;;;;;;6.65;4.15;;;;;;;24.70;100.00;101270.69;5036116;28;20052;-82
2023/09/02 09:24:17;;;;;;;7.60;4.07;;;;;;;24.59;100.00;101273.91;5039325;28;20477;-87
2023/09/02 09:26:44;;;;;;;5.57;4.32;;;;;;;24.89;100.00;101272.72;5040052;28;20550;-86
2023/09/02 09:29:15;;;;;;;6.70;4.10;;;;;;;24.94;100.00;101272.66;5051863;28;20036;-85
2023/09/02 09:31:43;;;;;;;5.40;3.72;;;;;;;25.42;100.00;101282.03;5052370;28;20024;-86
2023/09/02 09:34:10;;;;;;;6.70;3.70;;;;;;;25.53;100.00;101282.75;5051008;28;20060;-85
2023/09/02 09:36:37;;;;;;;4.18;3.10;;;;;;;24.69;100.00;101279.38;5031777;28;20129;-85
2023/09/02 09:39:05;;;;;;;5.32;3.28;;;;;;;25.35;100.00;101282.41;5042086;28;20049;-83
2023/09/02 09:41:32;;;;;;;4.75;3.53;;;;;;;24.95;100.00;101274.31;5048226;28;20621;-83
2023/09/02 09:44:28;;;;;;;5.00;3.40;;;;;;;24.76;100.00;101290.19;5054771;28;20033;-82
2023/09/02 09:46:54;;;;;;;5.40;3.28;;;;;;;24.66;100.00;101291.94;5037573;28;20041;-83
2023/09/02 09:49:28;;;;;;;5.60;3.47;;;;;;;24.55;100.00;101288.44;5041814;28;20091;-79
2023/09/02 09:52:00;;;;;;;4.57;3.22;;;;;;;24.13;100.00;101287.19;5034459;28;20076;-79
2023/09/02 09:54:49;;;;;;;3.90;2.80;;;;;;;24.06;100.00;101287.56;5036252;28;20090;-80
2023/09/02 09:57:36;;;;;;;6.25;2.70;;;;;;;24.15;100.00;101289.69;5049286;28;20172;-82
2023/09/02 10:00:05;;;;;;;4.63;3.58;;;;;;;23.96;100.00;101285.66;5051121;28;20498;-85
2023/09/02 10:02:31;;;;;;;4.85;2.80;;;;;;;24.37;100.00;101291.97;5045393;28;20046;-81
2023/09/02 10:04:59;;;;;;;4.72;2.85;;;;;;;24.69;100.00;101296.09;5039845;28;20026;-82
2023/09/02 10:07:33;;;;;;;5.35;2.85;;;;;;;24.60;100.00;101292.28;5037908;28;20473;-83
2023/09/02 10:10:02;;;;;;;3.60;2.47;;;;;;;25.19;100.00;101301.34;5043972;28;20045;-84
2023/09/02 10:12:33;;;;;;;4.45;3.00;;;;;;;26.08;100.00;101298.84;5047460;28;20060;-84
2023/09/02 10:15:03;;;;;;;4.70;2.20;;;;;;;27.44;95.85;101300.59;5036846;28;20040;-84
2023/09/02 10:17:31;;;;;;;3.42;2.20;;;;;;;28.61;86.71;101304.66;5035585;28;20112;-86
2023/09/02 10:19:57;;;;;;;3.80;2.53;;;;;;;29.07;76.97;101310.97;5035557;28;20095;-85
2023/09/02 10:22:27;;;;;;;4.03;2.70;;;;;;;28.70;77.92;101314.78;5045486;28;20098;-84
2023/09/02 10:25:18;;;;;;;4.18;2.67;;;;;;;27.49;82.25;101316.47;5042829;28;20060;-84
2023/09/02 10:27:51;;;;;;;2.97;1.80;;;;;;;29.13;76.46;101318.06;5047789;28;20716;-84
2023/09/02 10:30:35;;;;;;;4.03;2.72;;;;;;;28.93;75.55;101316.72;5052142;28;20033;-83
2023/09/02 10:33:11;;;;;;;3.30;2.22;;;;;;;27.43;85.46;101321.34;5030519;28;20041;-83
2023/09/02 10:35:43;;;;;;;4.28;2.60;;;;;;;26.83;92.73;101315.63;5064410;28;20037;-83
2023/09/02 10:38:17;;;;;;;4.47;2.40;;;;;;;27.13;89.65;101321.75;5069857;28;20044;-84
2023/09/02 10:40:48;;;;;;;4.55;2.90;;;;;;;27.40;89.43;101310.78;5066992;28;20040;-84
2023/09/02 10:43:15;;;;;;;4.63;2.83;;;;;;;26.86;91.00;101317.00;5074952;28;20467;-83
2023/09/02 10:45:42;;;;;;;4.53;2.95;;;;;;;26.62;99.91;101311.59;5057415;28;20033;-83
2023/09/02 10:48:08;;;;;;;4.25;3.40;;;;;;;26.06;97.59;101314.28;5054985;28;20046;-84
2023/09/02 10:50:35;;;;;;;4.47;3.23;;;;;;;25.92;100.00;101312.25;5043338;28;20052;-83
2023/09/02 10:53:01;;;;;;;4.25;2.60;;;;;;;25.96;100.00;101316.09;5043191;28;20121;-83
2023/09/02 10:55:31;;;;;;;2.15;1.70;;;;;;;26.26;91.42;101316.75;5037741;28;20033;-83
2023/09/02 10:57:58;;;;;;;2.85;1.98;;;;;;;26.46;93.04;101309.09;5046637;28;20070;-85
2023/09/02 11:00:26;;;;;;;4.25;3.55;;;;;;;26.39;95.14;101309.53;5033405;28;20444;-85
2023/09/02 11:02:57;;;;;;;4.13;3.20;;;;;;;26.14;100.00;101307.97;5036829;28;20444;-84
2023/09/02 11:05:25;;;;;;;5.82;4.30;;;;;;;25.75;100.00;101323.19;5041859;28;20533;-82
2023/09/02 11:07:52;;;;;;;4.43;3.47;;;;;;;26.32;96.96;101313.84;5037021;28;20112;-86
2023/09/02 11:10:19;;;;;;;;;;;;;;;26.22;96.08;101315.69;5037588;28;20394;-92
2023/09/02 11:13:00;;;;;;;4.30;3.08;;;;;;;26.22;96.27;101320.47;5040826;28;19939;-84
2023/09/02 11:15:30;;;;;;;6.28;3.88;;;;;;;26.77;92.01;101319.66;5038462;28;20473;-85
2023/09/02 11:17:56;;;;;;;3.65;2.42;;;;;;;27.62;87.89;101324.03;5039725;28;20403;-84